createdAt,value
2022-12-25T00:00:09.105Z,22.92
2022-12-25T00:02:40.071Z,22.38
2022-12-25T00:05:08.360Z,24.23
2022-12-25T00:07:35.617Z,22.27
2022-12-25T00:10:03.939Z,22.73
2022-12-25T00:12:31.220Z,21.27
2022-12-25T00:14:58.494Z,18.52
2022-12-25T00:17:25.742Z,18.90
2022-12-25T00:19:53.000Z,23.48
2022-12-25T00:22:20.708Z,27.13
2022-12-25T00:24:48.257Z,24.58
2022-12-25T00:27:15.638Z,24.45
2022-12-25T00:29:43.674Z,27.80
2022-12-25T00:32:11.247Z,25.98
2022-12-25T00:34:38.652Z,22.33
2022-12-25T00:37:05.878Z,26.13
2022-12-25T00:39:33.209Z,30.65
2022-12-25T00:42:18.847Z,21.60
2022-12-25T00:44:49.060Z,24.13
2022-12-25T00:47:16.757Z,23.15
2022-12-25T00:49:44.250Z,24.30
2022-12-25T00:52:11.523Z,20.50
2022-12-25T00:54:38.792Z,26.55
2022-12-25T00:57:06.113Z,21.45
2022-12-25T00:59:34.613Z,20.67
2022-12-25T01:02:22.042Z,30.70
2022-12-25T01:04:55.525Z,18.05
2022-12-25T01:10:09.501Z,22.05
2022-12-25T01:12:40.523Z,33.78
2022-12-25T01:15:09.074Z,25.40
2022-12-25T01:17:36.818Z,23.58
2022-12-25T01:20:04.360Z,25.35
2022-12-25T01:22:31.748Z,22.60
2022-12-25T01:24:59.041Z,23.77
2022-12-25T01:27:26.305Z,18.95
2022-12-25T01:29:53.619Z,24.70
2022-12-25T01:32:20.835Z,28.17
2022-12-25T01:34:53.751Z,28.65
2022-12-25T01:37:24.712Z,25.15
2022-12-25T01:39:52.010Z,22.00
2022-12-25T01:42:20.565Z,30.88
2022-12-25T01:44:47.666Z,26.60
2022-12-25T01:47:16.397Z,32.85
2022-12-25T01:49:45.178Z,25.58
2022-12-25T01:52:23.623Z,24.63
2022-12-25T01:54:56.427Z,26.75
2022-12-25T01:57:29.073Z,27.40
2022-12-25T01:59:56.579Z,24.85
2022-12-25T02:02:24.112Z,30.15
2022-12-25T02:04:58.441Z,25.08
2022-12-25T02:07:28.291Z,22.92
2022-12-25T02:09:56.050Z,29.35
2022-12-25T02:12:25.719Z,28.73
2022-12-25T02:15:01.149Z,24.75
2022-12-25T02:17:41.193Z,27.92
2022-12-25T02:20:13.983Z,23.77
2022-12-25T02:22:41.115Z,22.98
2022-12-25T02:25:21.923Z,25.45
2022-12-25T02:28:05.882Z,22.02
2022-12-25T02:30:40.427Z,22.77
2022-12-25T02:33:31.618Z,22.20
2022-12-25T02:35:58.850Z,23.80
2022-12-25T02:38:33.613Z,20.33
2022-12-25T02:41:05.377Z,25.23
2022-12-25T02:43:53.062Z,24.30
2022-12-25T02:46:40.933Z,24.70
2022-12-25T02:49:38.520Z,21.40
2022-12-25T02:52:29.975Z,21.92
2022-12-25T02:55:19.292Z,25.45
2022-12-25T02:58:07.203Z,25.10
2022-12-25T03:00:55.672Z,23.08
2022-12-25T03:03:41.541Z,26.80
2022-12-25T03:06:27.291Z,26.05
2022-12-25T03:09:15.574Z,23.67
2022-12-25T03:11:44.046Z,26.88
2022-12-25T03:14:30.273Z,32.30
2022-12-25T03:16:58.024Z,33.22
2022-12-25T03:19:47.311Z,31.80
2022-12-25T03:22:45.523Z,34.72
2022-12-25T03:25:31.744Z,25.52
2022-12-25T03:27:59.433Z,30.13
2022-12-25T03:31:10.493Z,28.17
2022-12-25T03:34:18.282Z,21.05
2022-12-25T03:37:19.169Z,29.70
2022-12-25T03:40:42.282Z,30.23
2022-12-25T03:43:37.416Z,35.03
2022-12-25T03:46:23.791Z,30.83
2022-12-25T03:49:10.433Z,32.70
2022-12-25T03:51:56.515Z,33.20
2022-12-25T03:54:43.716Z,33.60
2022-12-25T03:57:29.447Z,28.33
2022-12-25T04:00:16.931Z,31.45
2022-12-25T04:03:02.786Z,28.85
2022-12-25T04:05:48.860Z,33.40
2022-12-25T04:08:34.714Z,28.90
2022-12-25T04:11:20.528Z,32.50
2022-12-25T04:14:06.379Z,32.60
2022-12-25T04:16:52.515Z,37.88
2022-12-25T04:19:38.251Z,34.20
2022-12-25T04:22:24.155Z,31.63
2022-12-25T04:25:09.802Z,31.05
2022-12-25T04:27:55.797Z,39.15
2022-12-25T04:30:41.641Z,34.78
2022-12-25T04:33:27.690Z,40.50
2022-12-25T04:36:10.098Z,32.08
2022-12-25T04:38:38.056Z,27.27
2022-12-25T04:41:05.606Z,35.33
2022-12-25T04:43:32.823Z,31.00
2022-12-25T04:46:00.924Z,39.13
2022-12-25T04:48:28.647Z,29.33
2022-12-25T04:50:56.333Z,34.47
2022-12-25T04:53:26.345Z,28.67
2022-12-25T04:56:01.479Z,27.58
2022-12-25T04:58:28.769Z,31.98
2022-12-25T05:00:59.705Z,30.17
2022-12-25T05:03:27.548Z,29.35
2022-12-25T05:05:55.038Z,33.50
2022-12-25T05:08:22.959Z,29.90
2022-12-25T05:10:50.343Z,32.75
2022-12-25T05:13:19.183Z,37.00
2022-12-25T05:15:46.979Z,29.63
2022-12-25T05:18:14.208Z,27.92
2022-12-25T05:20:41.615Z,26.85
2022-12-25T05:23:12.308Z,31.67
2022-12-25T05:25:40.523Z,32.28
2022-12-25T05:28:07.894Z,31.45
2022-12-25T05:30:35.435Z,42.08
2022-12-25T05:33:03.175Z,39.65
2022-12-25T05:35:30.469Z,35.90
2022-12-25T05:37:57.790Z,36.85
2022-12-25T05:40:24.980Z,42.83
2022-12-25T05:42:52.365Z,38.33
2022-12-25T05:45:19.566Z,32.55
2022-12-25T05:47:47.145Z,35.28
2022-12-25T05:50:14.574Z,35.08
2022-12-25T05:52:41.895Z,46.78
2022-12-25T05:55:09.431Z,35.72
2022-12-25T05:57:36.689Z,40.85
2022-12-25T06:00:05.522Z,46.63
2022-12-25T06:02:34.499Z,45.72
2022-12-25T06:05:02.921Z,44.40
2022-12-25T06:07:31.389Z,44.33
2022-12-25T06:09:58.672Z,41.72
2022-12-25T06:12:25.898Z,39.13
2022-12-25T06:14:53.141Z,35.63
2022-12-25T06:17:20.378Z,32.47
2022-12-25T06:19:47.613Z,35.78
2022-12-25T06:22:15.471Z,37.53
2022-12-25T06:24:45.155Z,37.58
2022-12-25T06:27:12.463Z,33.63
2022-12-25T06:29:39.930Z,33.08
2022-12-25T06:32:08.232Z,37.42
2022-12-25T06:34:35.658Z,41.50
2022-12-25T06:37:02.919Z,36.85
2022-12-25T06:39:30.527Z,46.10
2022-12-25T06:41:57.990Z,41.10
2022-12-25T06:44:25.429Z,45.85
2022-12-25T06:46:53.910Z,41.20
2022-12-25T06:49:21.698Z,48.00
2022-12-25T06:51:49.263Z,43.38
2022-12-25T06:54:16.599Z,45.10
2022-12-25T06:56:43.820Z,42.35
2022-12-25T06:59:11.555Z,49.80
2022-12-25T07:01:40.602Z,55.55
2022-12-25T07:04:11.444Z,42.83
2022-12-25T07:06:39.644Z,39.28
2022-12-25T07:09:06.993Z,40.03
2022-12-25T07:11:34.313Z,43.53
2022-12-25T07:14:04.260Z,45.60
2022-12-25T07:16:32.083Z,41.10
2022-12-25T07:19:01.238Z,37.75
2022-12-25T07:21:29.812Z,44.45
2022-12-25T07:23:57.249Z,42.60
2022-12-25T07:26:24.490Z,42.05
2022-12-25T07:28:52.398Z,41.70
2022-12-25T07:31:20.354Z,40.00
2022-12-25T07:33:47.637Z,38.90
2022-12-25T07:36:15.005Z,50.00
2022-12-25T07:38:42.541Z,43.00
2022-12-25T07:41:10.743Z,46.70
2022-12-25T07:43:38.624Z,51.80
2022-12-25T07:46:06.384Z,51.47
2022-12-25T07:48:37.573Z,51.95
2022-12-25T07:51:06.342Z,52.85
2022-12-25T07:53:34.588Z,49.17
2022-12-25T07:56:13.069Z,45.47
2022-12-25T07:58:41.182Z,44.03
2022-12-25T08:01:13.616Z,44.45
2022-12-25T08:03:41.204Z,48.72
2022-12-25T08:06:09.267Z,52.03
2022-12-25T08:08:38.685Z,47.58
2022-12-25T08:11:08.320Z,51.20
2022-12-25T08:13:35.900Z,47.67
2022-12-25T08:16:04.895Z,50.45
2022-12-25T08:18:32.410Z,51.78
2022-12-25T08:21:07.123Z,40.33
2022-12-25T08:23:35.300Z,43.65
2022-12-25T08:26:05.614Z,46.00
2022-12-25T08:28:33.475Z,49.28
2022-12-25T08:31:06.441Z,44.33
2022-12-25T08:33:33.925Z,54.03
2022-12-25T08:36:05.746Z,51.55
2022-12-25T08:38:33.007Z,52.05
2022-12-25T08:41:00.547Z,46.50
2022-12-25T08:43:28.123Z,56.97
2022-12-25T08:45:55.616Z,49.35
2022-12-25T08:48:22.925Z,53.00
2022-12-25T08:50:51.273Z,51.40
2022-12-25T08:53:21.919Z,55.28
2022-12-25T08:55:49.413Z,49.72
2022-12-25T08:58:16.818Z,59.38
2022-12-25T09:00:44.035Z,54.25
2022-12-25T09:03:11.472Z,63.05
2022-12-25T09:05:39.463Z,53.35
2022-12-25T09:08:07.225Z,50.17
2022-12-25T09:10:36.858Z,74.40
2022-12-25T09:13:04.567Z,54.92
2022-12-25T09:15:33.542Z,56.28
2022-12-25T09:18:00.917Z,49.50
2022-12-25T09:20:28.169Z,52.83
2022-12-25T09:22:55.789Z,64.07
2022-12-25T09:25:22.998Z,61.70
2022-12-25T09:27:50.404Z,78.32
2022-12-25T09:30:17.736Z,66.18
2022-12-25T09:32:44.975Z,60.30
2022-12-25T09:35:13.954Z,66.15
2022-12-25T09:37:41.343Z,57.22
2022-12-25T09:40:10.284Z,52.55
2022-12-25T09:42:38.347Z,48.97
2022-12-25T09:45:18.032Z,53.05
2022-12-25T09:47:46.598Z,44.67
2022-12-25T09:50:17.805Z,50.88
2022-12-25T09:52:46.716Z,51.58
2022-12-25T09:55:20.428Z,40.38
2022-12-25T09:57:50.860Z,46.13
2022-12-25T10:00:20.456Z,44.20
2022-12-25T10:03:08.801Z,41.88
2022-12-25T10:06:01.131Z,50.65
2022-12-25T10:08:41.921Z,40.63
2022-12-25T10:11:27.771Z,56.85
2022-12-25T10:14:23.132Z,48.38
2022-12-25T10:17:06.568Z,50.75
2022-12-25T10:20:19.348Z,45.85
2022-12-25T10:22:53.037Z,49.25
2022-12-25T10:25:24.511Z,56.60
2022-12-25T10:27:57.284Z,43.00
2022-12-25T10:30:25.680Z,51.60
2022-12-25T10:32:52.928Z,42.72
2022-12-25T10:35:21.694Z,37.15
2022-12-25T10:37:55.145Z,57.53
2022-12-25T10:40:37.023Z,57.35
2022-12-25T10:43:09.078Z,45.00
2022-12-25T10:45:46.854Z,43.30
2022-12-25T10:48:34.839Z,47.85
2022-12-25T10:51:02.136Z,53.90
2022-12-25T10:53:38.322Z,53.97
2022-12-25T10:56:06.234Z,49.20
2022-12-25T10:58:33.905Z,55.83
2022-12-25T11:01:06.050Z,51.97
2022-12-25T11:03:39.108Z,47.67
2022-12-25T11:06:24.804Z,49.40
2022-12-25T11:08:54.969Z,68.53
2022-12-25T11:11:22.276Z,53.15
2022-12-25T11:14:00.197Z,52.20
2022-12-25T11:16:38.104Z,53.97
2022-12-25T11:19:27.392Z,51.38
2022-12-25T11:21:56.923Z,49.67
2022-12-25T11:24:30.328Z,41.35
2022-12-25T11:27:02.624Z,42.50
2022-12-25T11:29:42.089Z,43.85
2022-12-25T11:32:21.122Z,38.75
2022-12-25T11:34:48.829Z,46.03
2022-12-25T11:37:19.007Z,39.70
2022-12-25T11:39:46.353Z,54.78
2022-12-25T11:42:33.574Z,42.70
2022-12-25T11:45:09.342Z,41.42
2022-12-25T11:47:37.177Z,43.75
2022-12-25T11:50:13.390Z,47.53
2022-12-25T11:52:41.208Z,58.78
2022-12-25T11:55:23.740Z,48.95
2022-12-25T11:57:56.111Z,68.80
2022-12-25T12:00:23.423Z,53.47
2022-12-25T12:02:53.753Z,65.80
2022-12-25T12:05:35.501Z,62.55
2022-12-25T12:08:04.798Z,55.05
2022-12-25T12:11:15.998Z,71.15
2022-12-25T12:14:12.474Z,56.92
2022-12-25T12:16:40.252Z,59.53
2022-12-25T12:19:26.813Z,58.80
2022-12-25T12:22:01.120Z,52.63
2022-12-25T12:24:38.877Z,68.25
2022-12-25T12:27:27.518Z,64.32
2022-12-25T12:29:56.989Z,53.90
2022-12-25T12:32:35.725Z,72.50
2022-12-25T12:35:14.131Z,64.80
2022-12-25T12:37:41.445Z,78.43
2022-12-25T12:40:22.165Z,76.25
2022-12-25T12:42:50.654Z,84.53
2022-12-25T12:45:27.565Z,69.00
2022-12-25T12:47:55.645Z,69.07
2022-12-25T12:50:35.127Z,90.50
2022-12-25T12:53:27.520Z,70.97
2022-12-25T12:55:55.554Z,88.03
2022-12-25T12:58:34.079Z,71.35
2022-12-25T13:01:27.695Z,57.55
2022-12-25T13:04:19.331Z,53.05
2022-12-25T13:06:57.112Z,52.13
2022-12-25T13:09:42.974Z,57.97
2022-12-25T13:12:15.321Z,60.22
2022-12-25T13:14:46.408Z,47.95
2022-12-25T13:17:15.115Z,48.67
2022-12-25T13:19:42.664Z,67.47
2022-12-25T13:22:21.394Z,53.85
2022-12-25T13:24:55.157Z,60.40
2022-12-25T13:27:24.675Z,42.70
2022-12-25T13:30:19.573Z,51.90
2022-12-25T13:32:46.995Z,50.58
2022-12-25T13:35:17.764Z,45.95
2022-12-25T13:37:45.082Z,55.67
2022-12-25T13:40:26.229Z,59.20
2022-12-25T13:42:58.697Z,43.85
2022-12-25T13:45:27.926Z,47.38
2022-12-25T13:47:56.113Z,57.75
2022-12-25T13:50:25.431Z,49.97
2022-12-25T13:52:53.025Z,57.17
2022-12-25T13:55:24.820Z,56.40
2022-12-25T13:58:02.740Z,63.63
2022-12-25T14:00:39.343Z,75.30
2022-12-25T14:03:10.230Z,58.88
2022-12-25T14:05:42.910Z,56.30
2022-12-25T14:08:17.048Z,57.17
2022-12-25T14:10:48.509Z,70.45
2022-12-25T14:13:15.884Z,74.78
2022-12-25T14:15:43.720Z,65.05
2022-12-25T14:18:17.624Z,70.07
2022-12-25T14:21:22.316Z,72.43
2022-12-25T14:23:50.362Z,74.30
2022-12-25T14:26:18.930Z,74.50
2022-12-25T14:28:53.719Z,67.07
2022-12-25T14:31:21.300Z,76.18
2022-12-25T14:33:49.049Z,68.97
2022-12-25T14:36:16.250Z,68.15
2022-12-25T14:38:44.280Z,69.60
2022-12-25T14:41:22.627Z,66.20
2022-12-25T14:46:24.397Z,67.55
2022-12-25T14:49:04.773Z,67.28
2022-12-25T14:51:33.067Z,70.80
2022-12-25T14:54:02.195Z,86.65
2022-12-25T14:56:31.245Z,70.32
2022-12-25T14:58:59.149Z,78.13
2022-12-25T15:01:31.087Z,75.78
2022-12-25T15:04:10.935Z,62.15
2022-12-25T15:06:41.389Z,54.42
2022-12-25T15:09:15.922Z,62.33
2022-12-25T15:11:44.092Z,56.55
2022-12-25T15:14:11.834Z,58.08
2022-12-25T15:16:46.075Z,54.35
2022-12-25T15:19:20.551Z,58.60
2022-12-25T15:21:52.189Z,66.53
2022-12-25T15:24:19.581Z,57.33
2022-12-25T15:26:46.904Z,53.28
2022-12-25T15:29:14.588Z,64.50
2022-12-25T15:31:42.225Z,65.47
2022-12-25T15:34:17.269Z,61.47
2022-12-25T15:36:45.926Z,60.03
2022-12-25T15:39:13.395Z,60.58
2022-12-25T15:41:59.207Z,63.53
2022-12-25T15:44:26.723Z,57.13
2022-12-25T15:46:54.318Z,56.60
2022-12-25T15:49:23.343Z,49.78
2022-12-25T15:51:50.606Z,58.95
2022-12-25T15:54:19.287Z,54.38
2022-12-25T15:56:51.396Z,59.15
2022-12-25T15:59:19.604Z,63.78
2022-12-25T16:02:08.543Z,49.60
2022-12-25T16:04:36.708Z,50.63
2022-12-25T16:07:04.082Z,58.47
2022-12-25T16:09:31.541Z,49.00
2022-12-25T16:11:59.001Z,52.40
2022-12-25T16:14:26.197Z,52.95
2022-12-25T16:16:53.502Z,55.95
2022-12-25T16:19:20.754Z,52.13
2022-12-25T16:21:48.118Z,46.08
2022-12-25T16:24:15.370Z,55.90
2022-12-25T16:26:43.542Z,44.90
2022-12-25T16:29:11.188Z,55.20
2022-12-25T16:31:38.584Z,49.95
2022-12-25T16:34:06.493Z,43.38
2022-12-25T16:36:34.263Z,44.05
2022-12-25T16:39:02.593Z,50.80
2022-12-25T16:41:30.104Z,44.03
2022-12-25T16:43:57.347Z,47.58
2022-12-25T16:46:24.628Z,47.80
2022-12-25T16:48:52.517Z,52.42
2022-12-25T16:51:20.559Z,52.35
2022-12-25T16:53:50.359Z,57.58
2022-12-25T16:56:20.487Z,50.00
2022-12-25T16:58:48.049Z,41.38
2022-12-25T17:01:16.871Z,45.50
2022-12-25T17:03:44.254Z,49.40
2022-12-25T17:06:24.382Z,45.22
2022-12-25T17:08:52.694Z,37.70
2022-12-25T17:11:24.419Z,50.38
2022-12-25T17:13:51.636Z,55.38
2022-12-25T17:16:26.775Z,39.08
2022-12-25T17:18:55.252Z,41.92
2022-12-25T17:21:26.545Z,47.03
2022-12-25T17:23:59.681Z,47.33
2022-12-25T17:26:30.889Z,38.58
2022-12-25T17:28:58.351Z,39.13
2022-12-25T17:31:25.624Z,39.92
2022-12-25T17:33:53.102Z,47.30
2022-12-25T17:36:21.289Z,42.15
2022-12-25T17:38:48.784Z,41.42
2022-12-25T17:41:17.140Z,41.08
2022-12-25T17:43:45.897Z,40.58
2022-12-25T17:46:15.211Z,44.35
2022-12-25T17:48:42.769Z,43.17
2022-12-25T17:51:11.558Z,48.50
2022-12-25T17:53:39.946Z,41.95
2022-12-25T17:56:08.114Z,45.75
2022-12-25T17:58:35.853Z,51.55
2022-12-25T18:01:13.463Z,45.00
2022-12-25T18:03:41.166Z,51.38
2022-12-25T18:06:12.125Z,41.10
2022-12-25T18:08:44.061Z,46.05
2022-12-25T18:11:16.968Z,48.67
2022-12-25T18:13:45.187Z,43.90
2022-12-25T18:16:13.048Z,52.80
2022-12-25T18:18:42.330Z,40.42
2022-12-25T18:21:12.707Z,46.78
2022-12-25T18:23:39.989Z,40.78
2022-12-25T18:26:08.378Z,52.05
2022-12-25T18:28:36.169Z,42.72
2022-12-25T18:31:09.849Z,49.50
2022-12-25T18:33:38.033Z,51.35
2022-12-25T18:36:06.548Z,51.65
2022-12-25T18:38:35.578Z,42.28
2022-12-25T18:41:04.961Z,53.95
2022-12-25T18:43:52.222Z,51.60
2022-12-25T18:46:22.449Z,44.47
2022-12-25T18:48:49.758Z,56.70
2022-12-25T18:51:17.256Z,51.03
2022-12-25T18:53:48.016Z,63.22
2022-12-25T18:56:17.344Z,58.03
2022-12-25T18:58:45.448Z,60.63
2022-12-25T19:01:21.796Z,75.20
2022-12-25T19:03:49.576Z,60.17
2022-12-25T19:06:24.239Z,69.68
2022-12-25T19:08:51.594Z,79.75
2022-12-25T19:11:19.066Z,77.15
2022-12-25T19:13:46.604Z,70.75
2022-12-25T19:16:14.001Z,65.07
2022-12-25T19:18:41.937Z,67.72
2022-12-25T19:21:09.840Z,59.58
2022-12-25T19:23:38.002Z,63.80
2022-12-25T19:26:06.590Z,55.20
2022-12-25T19:28:34.475Z,77.80
2022-12-25T19:31:02.047Z,72.68
2022-12-25T19:33:31.227Z,78.80
2022-12-25T19:36:06.699Z,78.88
2022-12-25T19:38:33.993Z,62.33
2022-12-25T19:41:06.585Z,57.50
2022-12-25T19:43:38.479Z,71.05
2022-12-25T19:46:06.194Z,61.80
2022-12-25T19:48:34.270Z,49.83
2022-12-25T19:51:01.622Z,69.25
2022-12-25T19:53:31.689Z,57.90
2022-12-25T19:56:01.258Z,64.88
2022-12-25T19:58:29.733Z,56.38
2022-12-25T20:01:02.032Z,81.00
2022-12-25T20:03:29.810Z,64.05
2022-12-25T20:05:57.294Z,62.80
2022-12-25T20:08:25.469Z,54.15
2022-12-25T20:10:52.786Z,53.63
2022-12-25T20:13:20.919Z,47.05
2022-12-25T20:15:48.300Z,58.60
2022-12-25T20:18:16.866Z,67.88
2022-12-25T20:20:44.707Z,49.20
2022-12-25T20:23:11.995Z,56.25
2022-12-25T20:25:43.115Z,52.33
2022-12-25T20:28:10.536Z,62.05
2022-12-25T20:30:39.290Z,50.63
2022-12-25T20:33:06.770Z,54.80
2022-12-25T20:35:34.705Z,46.97
2022-12-25T20:38:02.062Z,48.42
2022-12-25T20:40:29.422Z,45.83
2022-12-25T20:42:57.132Z,47.17
2022-12-25T20:45:24.352Z,44.65
2022-12-25T20:47:51.727Z,46.95
2022-12-25T20:50:18.938Z,49.80
2022-12-25T20:52:46.155Z,41.25
2022-12-25T20:55:14.214Z,41.33
2022-12-25T20:57:41.554Z,51.35
2022-12-25T21:00:09.527Z,43.42
2022-12-25T21:02:37.935Z,51.50
2022-12-25T21:05:07.096Z,65.22
2022-12-25T21:07:37.468Z,44.88
2022-12-25T21:10:05.066Z,44.58
2022-12-25T21:12:32.471Z,54.75
2022-12-25T21:15:00.664Z,42.35
2022-12-25T21:17:27.997Z,51.00
2022-12-25T21:19:55.319Z,69.30
2022-12-25T21:22:22.568Z,57.65
2022-12-25T21:24:53.007Z,61.72
2022-12-25T21:27:20.255Z,48.50
2022-12-25T21:29:47.639Z,43.00
2022-12-25T21:32:33.484Z,45.83
2022-12-25T21:35:01.011Z,45.22
2022-12-25T21:37:31.432Z,59.63
2022-12-25T21:39:58.877Z,53.97
2022-12-25T21:42:26.374Z,48.10
2022-12-25T21:44:53.656Z,41.72
2022-12-25T21:47:20.887Z,48.25
2022-12-25T21:50:06.579Z,39.83
2022-12-25T21:52:35.567Z,44.13
2022-12-25T21:55:02.985Z,61.70
2022-12-25T21:57:30.265Z,46.13
2022-12-25T21:59:58.271Z,47.25
2022-12-25T22:02:26.322Z,39.08
2022-12-25T22:04:53.684Z,51.20
2022-12-25T22:07:21.010Z,44.67
2022-12-25T22:09:49.779Z,36.80
2022-12-25T22:12:37.330Z,42.40
2022-12-25T22:15:07.205Z,42.42
2022-12-25T22:17:57.973Z,41.00
2022-12-25T22:20:26.752Z,44.83
2022-12-25T22:22:54.461Z,46.42
2022-12-25T22:25:21.944Z,42.50
2022-12-25T22:27:49.378Z,42.95
2022-12-25T22:30:18.583Z,47.20
2022-12-25T22:32:46.693Z,48.47
2022-12-25T22:35:14.231Z,47.05
2022-12-25T22:37:42.450Z,43.63
2022-12-25T22:40:11.185Z,37.63
2022-12-25T22:42:38.694Z,37.58
2022-12-25T22:45:06.438Z,38.45
2022-12-25T22:47:34.000Z,37.97
2022-12-25T22:50:01.264Z,43.28
2022-12-25T22:52:28.786Z,39.28
2022-12-25T22:54:56.008Z,41.83
2022-12-25T22:57:24.843Z,44.42
2022-12-25T22:59:52.991Z,42.47
2022-12-25T23:02:20.684Z,33.53
2022-12-25T23:04:48.580Z,51.20
2022-12-25T23:07:16.361Z,47.85
2022-12-25T23:09:43.808Z,40.35
2022-12-25T23:12:31.522Z,48.30
2022-12-25T23:14:58.957Z,40.67
2022-12-25T23:17:44.940Z,41.45
2022-12-25T23:20:32.084Z,50.10
2022-12-25T23:23:17.984Z,45.95
2022-12-25T23:26:03.889Z,48.10
2022-12-25T23:28:49.681Z,43.55
2022-12-25T23:31:17.020Z,44.25
2022-12-25T23:33:44.533Z,50.22
2022-12-25T23:36:12.044Z,49.88
2022-12-25T23:38:39.294Z,52.63
2022-12-25T23:41:06.736Z,49.92
2022-12-25T23:43:34.143Z,55.67
2022-12-25T23:46:01.423Z,46.83
2022-12-25T23:48:28.796Z,55.03
2022-12-25T23:50:56.487Z,46.25
2022-12-25T23:53:24.569Z,49.35
2022-12-25T23:55:55.839Z,45.50
2022-12-25T23:58:24.465Z,42.28
